PSCRJ SBRJ-SDRS
Flight info
| Callsign | PSCRJ |
|---|---|
| Flight time | N/A |
| Altitude | 4500 |
| Route | DCT REH 2254S04311W DCT 2254S04312W DCT 2253S04313W DCT 2252S04314W DCT 2249S04319W DCT 2248S04320W DCT 2247S04321W DCT 2245S04325W DCT 2243S04336W DCT 2243S04342W N0140 A045 VFR DCT 2231S04408W DCT |
| Aircraft | S76/L-SDFGR/S |
Departure
| Time | 2026-05-05 23:39 |
|---|---|
| Airport | Santos Dumont Airport (SBRJ) |
Arrival
| Time | N/A |
|---|---|
| Airport | Resende Airport (SDRS) |
| Time | Latitude | Longitude | Altitude | Speed | Heading |
|---|---|---|---|---|---|
| 2026-05-05 23:38 | -22.90587 | -43.16630 | 15 ft | 0 kts | 359° |
| 2026-05-05 23:39 | -22.90588 | -43.16631 | 30 ft | 1 kts | 359° |
| 2026-05-05 23:39 | -22.90550 | -43.16639 | 142 ft | 15 kts | 287° |
| 2026-05-05 23:39 | -22.90506 | -43.16863 | 672 ft | 57 kts | 278° |
| 2026-05-05 23:40 | -22.90465 | -43.17483 | 1088 ft | 109 kts | 282° |
| 2026-05-05 23:40 | -22.90324 | -43.17819 | 1132 ft | 133 kts | 298° |
| 2026-05-05 23:41 | -22.90279 | -43.17892 | 1134 ft | 137 kts | 301° |
| 2026-05-05 23:41 | -22.89716 | -43.18723 | 1040 ft | 153 kts | 305° |
| 2026-05-05 23:42 | -22.89386 | -43.19188 | 978 ft | 155 kts | 308° |
| 2026-05-05 23:42 | -22.88859 | -43.20189 | 843 ft | 153 kts | 283° |
| 2026-05-05 23:42 | -22.89011 | -43.21288 | 890 ft | 151 kts | 249° |
| 2026-05-05 23:42 | -22.89355 | -43.22369 | 890 ft | 152 kts | 251° |
| 2026-05-05 23:43 | -22.89364 | -43.23467 | 696 ft | 140 kts | 289° |
| 2026-05-05 23:43 | -22.88769 | -43.23807 | 813 ft | 145 kts | 346° |
| 2026-05-05 23:43 | -22.88268 | -43.23862 | 805 ft | 149 kts | 355° |
| 2026-05-05 23:44 | -22.87769 | -43.23937 | 764 ft | 152 kts | 344° |
| 2026-05-05 23:44 | -22.86793 | -43.24368 | 729 ft | 150 kts | 336° |
| 2026-05-05 23:44 | -22.85792 | -43.24691 | 773 ft | 151 kts | 344° |
| 2026-05-05 23:44 | -22.84783 | -43.25003 | 788 ft | 152 kts | 339° |
| 2026-05-05 23:45 | -22.84290 | -43.25804 | 786 ft | 149 kts | 287° |
| 2026-05-05 23:45 | -22.84403 | -43.26890 | 800 ft | 150 kts | 244° |
| 2026-05-05 23:45 | -22.83809 | -43.27579 | 842 ft | 150 kts | 315° |
| 2026-05-05 23:45 | -22.83396 | -43.28007 | 797 ft | 153 kts | 314° |